createdAt,value
2022-10-20T00:02:53.941Z,5.30
2022-10-20T00:06:06.778Z,8.18
2022-10-20T00:09:09.208Z,4.65
2022-10-20T00:12:11.698Z,7.62
2022-10-20T00:15:13.911Z,6.12
2022-10-20T00:18:16.690Z,7.00
2022-10-20T00:21:21.640Z,6.20
2022-10-20T00:24:24.249Z,4.40
2022-10-20T00:27:26.469Z,5.72
2022-10-20T00:30:29.136Z,8.70
2022-10-20T00:33:31.771Z,4.85
2022-10-20T00:36:34.241Z,4.00
2022-10-20T00:39:36.600Z,4.35
2022-10-20T00:42:44.443Z,5.70
2022-10-20T00:45:54.591Z,8.75
2022-10-20T00:49:02.900Z,4.78
2022-10-20T00:52:05.735Z,3.20
2022-10-20T00:55:10.575Z,4.27
2022-10-20T00:58:13.005Z,3.95
2022-10-20T01:01:16.069Z,3.03
2022-10-20T01:04:18.932Z,4.93
2022-10-20T01:07:21.473Z,4.50
2022-10-20T01:10:26.924Z,4.45
2022-10-20T01:13:49.619Z,4.68
2022-10-20T01:17:13.627Z,5.15
2022-10-20T01:20:36.253Z,5.07
2022-10-20T01:23:48.491Z,4.45
2022-10-20T01:27:19.301Z,8.25
2022-10-20T01:30:23.715Z,5.05
2022-10-20T01:33:49.523Z,3.80
2022-10-20T01:37:00.287Z,4.62
2022-10-20T01:40:14.879Z,5.43
2022-10-20T01:49:27.285Z,7.62
2022-10-20T01:52:30.305Z,8.07
2022-10-20T01:55:33.637Z,3.75
2022-10-20T01:59:11.138Z,5.30
2022-10-20T02:02:51.583Z,4.22
2022-10-20T02:06:35.775Z,4.82
2022-10-20T02:10:04.953Z,4.45
2022-10-20T02:13:09.017Z,7.40
2022-10-20T02:16:28.595Z,7.72
2022-10-20T02:19:39.582Z,4.20
2022-10-20T02:22:41.844Z,5.15
2022-10-20T02:25:45.806Z,5.62
2022-10-20T02:28:58.964Z,8.70
2022-10-20T02:32:01.744Z,6.33
2022-10-20T02:35:10.694Z,5.78
2022-10-20T02:38:13.147Z,5.95
2022-10-20T02:41:15.327Z,7.20
2022-10-20T02:44:18.239Z,19.05
2022-10-20T02:47:21.099Z,5.70
2022-10-20T02:50:23.658Z,5.57
2022-10-20T02:53:25.869Z,12.85
2022-10-20T02:56:30.922Z,7.37
2022-10-20T02:59:33.677Z,6.97
2022-10-20T03:02:36.362Z,6.95
2022-10-20T03:05:44.362Z,6.68
2022-10-20T03:08:46.887Z,10.77
2022-10-20T03:11:49.177Z,6.37
2022-10-20T03:14:51.678Z,6.25
2022-10-20T03:17:53.874Z,7.97
2022-10-20T03:20:56.542Z,4.18
2022-10-20T03:23:58.827Z,12.27
2022-10-20T03:27:01.350Z,15.23
2022-10-20T03:30:04.275Z,11.88
2022-10-20T03:33:06.878Z,6.83
2022-10-20T03:36:09.119Z,8.30
2022-10-20T03:39:11.747Z,8.27
2022-10-20T03:42:14.736Z,5.82
2022-10-20T03:45:36.094Z,8.73
2022-10-20T03:48:40.028Z,5.50
2022-10-20T03:51:42.551Z,6.32
2022-10-20T03:54:44.723Z,5.25
2022-10-20T03:57:47.272Z,5.00
2022-10-20T04:00:50.170Z,8.00
2022-10-20T04:03:52.617Z,8.03
2022-10-20T04:06:54.805Z,5.28
2022-10-20T04:09:57.573Z,7.47
2022-10-20T04:13:02.511Z,8.20
2022-10-20T04:16:05.326Z,8.25
2022-10-20T04:19:07.619Z,6.28
2022-10-20T04:22:10.105Z,8.10
2022-10-20T04:25:12.906Z,5.87
2022-10-20T04:28:17.355Z,6.12
2022-10-20T04:31:19.557Z,5.82
2022-10-20T04:34:22.171Z,5.28
2022-10-20T04:37:24.665Z,5.70
2022-10-20T04:40:27.263Z,8.38
2022-10-20T04:43:29.679Z,6.28
2022-10-20T04:46:32.277Z,5.78
2022-10-20T04:49:34.529Z,6.80
2022-10-20T04:52:37.501Z,5.95
2022-10-20T04:55:39.736Z,8.38
2022-10-20T04:58:42.295Z,5.05
2022-10-20T05:01:44.546Z,6.55
2022-10-20T05:04:47.056Z,10.02
2022-10-20T05:07:49.271Z,10.07
2022-10-20T05:10:51.785Z,7.50
2022-10-20T05:13:54.032Z,7.60
2022-10-20T05:16:56.531Z,7.93
2022-10-20T05:19:58.768Z,11.35
2022-10-20T05:23:01.256Z,6.47
2022-10-20T05:26:05.561Z,12.32
2022-10-20T05:29:10.441Z,8.15
2022-10-20T05:32:12.697Z,15.95
2022-10-20T05:35:15.211Z,6.85
2022-10-20T05:38:17.605Z,14.38
2022-10-20T05:41:36.311Z,8.98
2022-10-20T05:44:41.106Z,8.50
2022-10-20T05:47:43.593Z,14.18
2022-10-20T05:53:55.503Z,13.68
2022-10-20T05:56:57.701Z,7.03
2022-10-20T06:00:01.692Z,9.35
2022-10-20T06:03:16.167Z,14.32
2022-10-20T06:06:24.198Z,9.70
2022-10-20T06:09:26.663Z,10.30
2022-10-20T06:12:29.253Z,8.27
2022-10-20T06:15:32.659Z,10.00
2022-10-20T06:18:35.683Z,13.50
2022-10-20T06:21:38.900Z,7.90
2022-10-20T06:24:41.492Z,14.15
2022-10-20T06:27:44.548Z,16.50
2022-10-20T06:30:47.758Z,11.23
2022-10-20T06:33:51.269Z,11.52
2022-10-20T06:36:53.937Z,8.48
2022-10-20T06:39:56.723Z,12.95
2022-10-20T06:42:59.332Z,14.00
2022-10-20T06:46:04.352Z,15.48
2022-10-20T06:49:08.108Z,13.40
2022-10-20T06:52:11.902Z,6.87
2022-10-20T06:55:17.128Z,8.38
2022-10-20T06:58:19.668Z,9.18
2022-10-20T07:01:27.781Z,12.80
2022-10-20T07:04:30.178Z,12.45
2022-10-20T07:07:32.739Z,9.73
2022-10-20T07:10:34.967Z,12.82
2022-10-20T07:13:38.218Z,11.88
2022-10-20T07:16:40.760Z,11.40
2022-10-20T07:19:43.584Z,11.23
2022-10-20T07:22:45.792Z,9.05
2022-10-20T07:25:48.244Z,11.65
2022-10-20T07:28:56.013Z,12.55
2022-10-20T07:31:59.989Z,7.97
2022-10-20T07:35:04.606Z,9.45
2022-10-20T07:38:07.087Z,15.70
2022-10-20T07:41:09.779Z,12.02
2022-10-20T07:44:12.275Z,6.07
2022-10-20T07:47:14.484Z,10.52
2022-10-20T07:50:17.172Z,12.10
2022-10-20T07:53:19.507Z,12.20
2022-10-20T07:56:24.560Z,12.70
2022-10-20T07:59:26.958Z,11.73
2022-10-20T08:02:29.504Z,10.02
2022-10-20T08:05:33.466Z,6.95
2022-10-20T08:08:38.276Z,10.43
2022-10-20T08:11:40.906Z,6.15
2022-10-20T08:14:47.832Z,7.82
2022-10-20T08:17:50.512Z,6.05
2022-10-20T08:20:53.908Z,4.35
2022-10-20T08:23:56.499Z,11.10
2022-10-20T08:26:58.876Z,9.48
2022-10-20T08:30:22.387Z,9.00
2022-10-20T08:33:27.101Z,9.82
2022-10-20T08:36:32.381Z,19.67
2022-10-20T08:39:34.809Z,8.10
2022-10-20T08:42:45.089Z,8.23
2022-10-20T08:45:47.998Z,5.30
2022-10-20T08:48:51.123Z,6.60
2022-10-20T08:51:53.785Z,6.75
2022-10-20T08:54:57.730Z,9.18
2022-10-20T08:58:13.741Z,9.85
2022-10-20T09:01:22.431Z,8.75
2022-10-20T09:04:35.434Z,7.55
2022-10-20T09:07:40.077Z,5.78
2022-10-20T09:10:49.422Z,7.15
2022-10-20T09:14:02.714Z,5.50
2022-10-20T09:17:17.007Z,7.97
2022-10-20T09:20:24.360Z,6.75
2022-10-20T09:23:42.247Z,7.40
2022-10-20T09:27:02.456Z,9.98
2022-10-20T09:30:35.295Z,6.32
2022-10-20T09:33:37.776Z,11.00
2022-10-20T09:36:41.228Z,6.85
2022-10-20T09:39:49.203Z,6.45
2022-10-20T09:43:02.476Z,5.75
2022-10-20T09:46:08.725Z,9.88
2022-10-20T09:49:29.087Z,7.12
2022-10-20T09:52:46.735Z,8.65
2022-10-20T09:55:51.442Z,10.93
2022-10-20T09:58:55.409Z,9.27
2022-10-20T10:02:01.534Z,10.73
2022-10-20T10:05:20.403Z,5.07
2022-10-20T10:08:28.790Z,4.62
2022-10-20T10:11:37.976Z,6.80
2022-10-20T10:14:58.669Z,5.25
2022-10-20T10:18:15.867Z,6.00
2022-10-20T10:21:18.213Z,7.68
2022-10-20T10:24:48.483Z,5.93
2022-10-20T10:28:07.000Z,6.40
2022-10-20T10:31:24.316Z,6.45
2022-10-20T10:34:43.043Z,10.15
2022-10-20T10:37:47.247Z,7.57
2022-10-20T10:40:59.394Z,6.75
2022-10-20T10:44:12.552Z,5.60
2022-10-20T10:47:40.754Z,7.12
2022-10-20T10:50:43.227Z,7.65
2022-10-20T10:54:11.624Z,8.63
2022-10-20T10:57:23.858Z,8.65
2022-10-20T11:00:48.569Z,7.55
2022-10-20T11:04:02.362Z,7.18
2022-10-20T11:07:10.377Z,8.90
2022-10-20T11:10:50.108Z,6.15
2022-10-20T11:13:55.884Z,6.22
2022-10-20T11:17:31.557Z,4.50
2022-10-20T11:21:00.220Z,8.25
2022-10-20T11:24:26.071Z,8.55
2022-10-20T11:27:36.184Z,13.40
2022-10-20T11:30:41.144Z,8.07
2022-10-20T11:33:47.648Z,5.40
2022-10-20T11:37:00.647Z,6.78
2022-10-20T11:40:21.545Z,7.62
2022-10-20T11:43:32.603Z,6.75
2022-10-20T11:46:38.340Z,6.78
2022-10-20T11:49:41.232Z,8.05
2022-10-20T11:53:13.256Z,7.62
2022-10-20T11:56:18.855Z,4.72
2022-10-20T11:59:53.781Z,7.03
2022-10-20T12:03:21.259Z,5.93
2022-10-20T12:06:33.227Z,7.28
2022-10-20T12:10:03.250Z,5.95
2022-10-20T12:13:28.863Z,4.22
2022-10-20T12:16:58.208Z,4.20
2022-10-20T12:20:25.039Z,6.45
2022-10-20T12:23:57.821Z,5.03
2022-10-20T12:27:09.611Z,4.62
2022-10-20T12:30:18.048Z,3.00
2022-10-20T12:33:39.996Z,2.90
2022-10-20T12:36:42.263Z,4.37
2022-10-20T12:39:46.979Z,7.18
2022-10-20T12:42:54.369Z,7.82
2022-10-20T12:46:04.733Z,7.05
2022-10-20T12:49:21.684Z,7.50
2022-10-20T12:52:33.855Z,3.60
2022-10-20T12:55:41.761Z,2.30
2022-10-20T12:59:10.790Z,3.67
2022-10-20T13:02:24.860Z,4.50
2022-10-20T13:05:46.456Z,3.42
2022-10-20T13:09:03.967Z,3.37
2022-10-20T13:12:26.449Z,3.78
2022-10-20T13:15:44.753Z,3.10
2022-10-20T13:18:50.556Z,6.30
2022-10-20T13:21:53.923Z,4.25
2022-10-20T13:24:59.651Z,16.30
2022-10-20T13:28:07.394Z,4.53
2022-10-20T13:31:21.861Z,7.75
2022-10-20T13:37:45.467Z,7.50
2022-10-20T13:41:12.536Z,10.25
2022-10-20T13:44:31.344Z,12.40
2022-10-20T13:47:39.695Z,5.75
2022-10-20T13:50:47.002Z,3.25
2022-10-20T13:53:53.191Z,5.87
2022-10-20T13:56:56.925Z,9.02
2022-10-20T14:00:18.916Z,7.07
2022-10-20T14:03:21.435Z,4.00
2022-10-20T14:06:37.947Z,7.05
2022-10-20T14:09:45.956Z,6.80
2022-10-20T14:12:51.006Z,5.28
2022-10-20T14:15:58.900Z,4.25
2022-10-20T14:19:11.960Z,2.95
2022-10-20T14:22:25.403Z,5.03
2022-10-20T14:25:28.453Z,4.53
2022-10-20T14:28:34.082Z,7.28
2022-10-20T14:31:36.616Z,7.12
2022-10-20T14:34:55.254Z,6.72
2022-10-20T14:37:59.891Z,8.77
2022-10-20T14:41:03.094Z,5.68
2022-10-20T14:44:14.665Z,6.72
2022-10-20T14:47:22.886Z,4.53
2022-10-20T14:50:33.073Z,4.90
2022-10-20T14:53:35.721Z,4.82
2022-10-20T14:56:50.685Z,7.75
2022-10-20T14:59:59.157Z,6.85
2022-10-20T15:03:06.926Z,8.38
2022-10-20T15:06:15.171Z,6.37
2022-10-20T15:09:28.034Z,6.03
2022-10-20T15:12:33.439Z,4.78
2022-10-20T15:15:38.225Z,6.03
2022-10-20T15:18:41.784Z,6.28
2022-10-20T15:21:44.006Z,5.55
2022-10-20T15:24:46.811Z,3.90
2022-10-20T15:27:49.251Z,3.35
2022-10-20T15:30:51.915Z,6.65
2022-10-20T15:33:56.580Z,5.90
2022-10-20T15:36:59.139Z,6.57
2022-10-20T15:40:01.556Z,9.48
2022-10-20T15:43:04.200Z,3.37
2022-10-20T15:46:06.536Z,7.75
2022-10-20T15:49:09.407Z,11.98
2022-10-20T15:52:11.701Z,4.37
2022-10-20T15:55:22.526Z,4.30
2022-10-20T15:58:24.734Z,7.22
2022-10-20T16:01:28.112Z,6.50
2022-10-20T16:04:31.826Z,10.20
2022-10-20T16:07:34.303Z,8.88
2022-10-20T16:10:38.865Z,10.30
2022-10-20T16:13:42.418Z,9.75
2022-10-20T16:16:45.080Z,5.97
2022-10-20T16:19:47.346Z,6.65
2022-10-20T16:22:50.167Z,7.87
2022-10-20T16:25:52.813Z,8.32
2022-10-20T16:28:55.454Z,5.07
2022-10-20T16:31:58.471Z,8.15
2022-10-20T16:35:05.507Z,12.35
2022-10-20T16:38:07.735Z,8.63
2022-10-20T16:41:12.693Z,6.22
2022-10-20T16:44:15.347Z,9.65
2022-10-20T16:47:18.819Z,7.80
2022-10-20T16:50:26.889Z,7.93
2022-10-20T16:53:43.145Z,8.43
2022-10-20T16:56:46.375Z,10.55
2022-10-20T16:59:50.224Z,5.50
2022-10-20T17:02:56.273Z,11.60
2022-10-20T17:06:07.224Z,7.47
2022-10-20T17:09:09.542Z,9.85
2022-10-20T17:12:14.010Z,7.82
2022-10-20T17:15:16.395Z,9.85
2022-10-20T17:18:19.051Z,7.47
2022-10-20T17:21:21.408Z,7.60
2022-10-20T17:24:24.524Z,7.40
2022-10-20T17:27:26.771Z,7.18
2022-10-20T17:30:32.162Z,5.97
2022-10-20T17:33:34.775Z,8.43
2022-10-20T17:36:39.883Z,11.73
2022-10-20T17:39:42.101Z,10.55
2022-10-20T17:42:44.593Z,9.40
2022-10-20T17:46:06.202Z,8.15
2022-10-20T17:49:09.106Z,9.38
2022-10-20T17:52:11.387Z,16.67
2022-10-20T17:55:13.978Z,12.45
2022-10-20T17:58:16.205Z,10.35
2022-10-20T18:01:23.158Z,12.30
2022-10-20T18:04:25.797Z,16.60
2022-10-20T18:07:28.051Z,10.73
2022-10-20T18:10:30.598Z,11.00
2022-10-20T18:13:34.967Z,10.65
2022-10-20T18:16:39.495Z,8.65
2022-10-20T18:19:41.790Z,13.27
2022-10-20T18:22:45.539Z,11.20
2022-10-20T18:25:47.940Z,11.57
2022-10-20T18:28:50.768Z,10.48
2022-10-20T18:31:54.314Z,12.50
2022-10-20T18:34:56.836Z,15.73
2022-10-20T18:37:59.089Z,14.85
2022-10-20T18:41:20.240Z,17.70
2022-10-20T18:44:23.836Z,14.32
2022-10-20T18:50:28.532Z,15.05
2022-10-20T18:53:32.063Z,14.80
2022-10-20T18:56:35.748Z,19.60
2022-10-20T19:02:40.587Z,17.73
2022-10-20T19:05:43.198Z,16.55
2022-10-20T19:08:46.095Z,16.75
2022-10-20T19:14:52.820Z,20.15
2022-10-20T19:17:59.354Z,26.98
2022-10-20T19:21:06.066Z,17.83
2022-10-20T19:24:20.978Z,18.08
2022-10-20T19:27:27.370Z,21.85
2022-10-20T19:30:34.428Z,30.42
2022-10-20T19:33:36.654Z,30.12
2022-10-20T19:36:40.587Z,25.12
2022-10-20T19:39:43.417Z,22.67
2022-10-20T19:42:45.926Z,24.43
2022-10-20T19:45:49.814Z,21.37
2022-10-20T19:48:52.674Z,21.83
2022-10-20T19:51:55.437Z,17.80
2022-10-20T19:54:57.974Z,18.30
2022-10-20T19:58:00.902Z,17.95
2022-10-20T20:01:05.037Z,19.90
2022-10-20T20:04:07.774Z,18.55
2022-10-20T20:07:10.089Z,18.73
2022-10-20T20:10:12.908Z,23.10
2022-10-20T20:13:15.195Z,19.83
2022-10-20T20:16:17.887Z,13.35
2022-10-20T20:19:20.365Z,19.35
2022-10-20T20:22:23.116Z,12.27
2022-10-20T20:25:25.462Z,13.90
2022-10-20T20:28:28.072Z,16.62
2022-10-20T20:31:30.779Z,20.15
2022-10-20T20:34:33.271Z,24.67
2022-10-20T20:37:35.779Z,19.67
2022-10-20T20:40:40.163Z,27.10
2022-10-20T20:43:45.368Z,29.23
2022-10-20T20:46:47.968Z,25.67
2022-10-20T20:49:50.949Z,26.20
2022-10-20T20:52:53.499Z,21.42
2022-10-20T20:56:07.524Z,28.15
2022-10-20T21:02:12.146Z,34.42
2022-10-20T21:05:14.753Z,31.15
2022-10-20T21:08:17.887Z,25.62
2022-10-20T21:11:25.233Z,33.35
2022-10-20T21:14:27.567Z,21.08
2022-10-20T21:17:30.906Z,27.55
2022-10-20T21:20:33.951Z,22.25
2022-10-20T21:23:36.591Z,27.92
2022-10-20T21:26:39.468Z,20.88
2022-10-20T21:29:45.572Z,19.40
2022-10-20T21:32:48.630Z,22.73
2022-10-20T21:35:51.269Z,19.00
2022-10-20T21:38:53.964Z,18.05
2022-10-20T21:41:56.491Z,13.45
2022-10-20T21:44:58.718Z,15.35
2022-10-20T21:48:01.250Z,16.95
2022-10-20T21:51:21.747Z,12.18
2022-10-20T21:54:28.392Z,12.35
2022-10-20T21:57:30.707Z,12.43
2022-10-20T22:00:33.275Z,13.13
2022-10-20T22:03:35.910Z,12.10
2022-10-20T22:06:38.772Z,15.90
2022-10-20T22:09:41.252Z,15.80
2022-10-20T22:12:43.485Z,10.48
2022-10-20T22:15:46.384Z,11.20
2022-10-20T22:18:48.631Z,11.12
2022-10-20T22:21:52.926Z,10.50
2022-10-20T22:24:55.229Z,9.00
2022-10-20T22:27:57.759Z,9.18
2022-10-20T22:34:04.205Z,11.82
2022-10-20T22:37:06.443Z,12.25
2022-10-20T22:40:09.374Z,11.77
2022-10-20T22:43:13.889Z,10.45
2022-10-20T22:46:16.682Z,11.43
2022-10-20T22:49:18.913Z,12.20
2022-10-20T22:52:21.434Z,10.98
2022-10-20T22:55:23.669Z,10.55
2022-10-20T22:58:26.206Z,14.95
2022-10-20T23:01:28.759Z,15.75
2022-10-20T23:04:31.335Z,15.77
2022-10-20T23:07:37.445Z,16.12
2022-10-20T23:10:40.116Z,14.65
2022-10-20T23:13:42.615Z,13.88
2022-10-20T23:16:45.109Z,18.80
2022-10-20T23:19:47.377Z,17.77
2022-10-20T23:22:49.878Z,15.48
2022-10-20T23:25:52.402Z,16.37
2022-10-20T23:28:54.910Z,17.15
2022-10-20T23:31:57.208Z,21.58
2022-10-20T23:34:59.713Z,18.33
2022-10-20T23:38:02.395Z,15.50
2022-10-20T23:41:05.614Z,15.40
2022-10-20T23:44:08.244Z,16.48
2022-10-20T23:47:10.776Z,17.90
2022-10-20T23:50:13.294Z,15.80
2022-10-20T23:53:15.997Z,15.60
2022-10-20T23:56:18.335Z,17.02
2022-10-20T23:59:20.833Z,17.12
